createdAt,value
2019-01-02T00:00:45.531Z,5.59
2019-01-02T00:03:14.561Z,5.54
2019-01-02T00:05:43.628Z,5.53
2019-01-02T00:08:12.664Z,5.57
2019-01-02T00:10:41.712Z,5.58
2019-01-02T00:13:11.768Z,5.54
2019-01-02T00:15:40.815Z,5.49
2019-01-02T00:18:09.873Z,5.52
2019-01-02T00:20:39.021Z,5.46
2019-01-02T00:23:11.166Z,5.47
2019-01-02T00:25:40.238Z,5.40
2019-01-02T00:28:09.290Z,5.39
2019-01-02T00:30:38.338Z,5.35
2019-01-02T00:33:07.447Z,5.35
2019-01-02T00:35:36.498Z,5.31
2019-01-02T00:38:05.528Z,5.26
2019-01-02T00:40:34.601Z,5.25
2019-01-02T00:43:24.850Z,5.21
2019-01-02T00:45:53.909Z,5.20
2019-01-02T00:48:22.967Z,5.19
2019-01-02T00:50:52.013Z,5.23
2019-01-02T00:56:18.623Z,5.26
2019-01-02T00:58:47.860Z,5.23
2019-01-02T01:01:17.692Z,5.29
2019-01-02T01:03:58.150Z,5.32
2019-01-02T01:06:27.194Z,5.33
2019-01-02T01:08:56.236Z,5.39
2019-01-02T01:11:25.346Z,5.43
2019-01-02T01:13:54.394Z,5.42
2019-01-02T01:16:23.421Z,5.40
2019-01-02T01:18:52.487Z,5.16
2019-01-02T01:21:21.535Z,5.11
2019-01-02T01:23:50.581Z,5.20
2019-01-02T01:26:19.651Z,5.10
2019-01-02T01:28:48.701Z,5.06
2019-01-02T01:31:17.752Z,5.05
2019-01-02T01:36:41.197Z,4.96
2019-01-02T01:39:10.228Z,4.84
2019-01-02T01:41:39.275Z,4.82
2019-01-02T01:44:08.328Z,4.84
2019-01-02T01:46:37.402Z,4.85
2019-01-02T01:49:06.439Z,4.87
2019-01-02T01:51:35.484Z,4.88
2019-01-02T01:54:04.713Z,4.90
2019-01-02T01:56:33.753Z,4.82
2019-01-02T01:59:02.802Z,4.80
2019-01-02T02:01:31.868Z,4.84
2019-01-02T02:04:01.960Z,4.83
2019-01-02T02:06:31.000Z,4.83
2019-01-02T02:09:00.068Z,4.90
2019-01-02T02:11:29.115Z,4.84
2019-01-02T02:14:11.784Z,4.60
2019-01-02T02:16:40.825Z,4.47
2019-01-02T02:19:09.859Z,4.35
2019-01-02T02:21:38.925Z,4.19
2019-01-02T02:24:07.967Z,4.27
2019-01-02T02:26:37.024Z,4.28
2019-01-02T02:29:06.115Z,4.30
2019-01-02T02:31:35.159Z,4.29
2019-01-02T02:34:04.207Z,4.41
2019-01-02T02:36:33.293Z,4.49
2019-01-02T02:39:02.334Z,4.55
2019-01-02T02:41:31.380Z,4.59
2019-01-02T02:44:20.267Z,4.62
2019-01-02T02:46:49.293Z,4.65
2019-01-02T02:49:18.334Z,4.63
2019-01-02T02:51:47.437Z,4.65
2019-01-02T02:54:16.501Z,4.62
2019-01-02T02:56:45.530Z,4.57
2019-01-02T02:59:14.598Z,4.43
2019-01-02T03:01:43.742Z,4.30
2019-01-02T03:04:12.773Z,4.30
2019-01-02T03:06:42.287Z,4.30
2019-01-02T03:09:10.890Z,4.11
2019-01-02T03:11:39.936Z,3.80
2019-01-02T03:14:09.204Z,3.61
2019-01-02T03:16:38.246Z,3.50
2019-01-02T03:19:07.341Z,3.36
2019-01-02T03:21:36.421Z,3.26
2019-01-02T03:24:05.457Z,3.12
2019-01-02T03:26:34.491Z,3.14
2019-01-02T03:29:03.563Z,3.21
2019-01-02T03:31:32.624Z,3.23
2019-01-02T03:34:01.671Z,3.30
2019-01-02T03:36:30.954Z,3.38
2019-01-02T03:39:00.002Z,3.22
2019-01-02T03:41:29.045Z,3.19
2019-01-02T03:43:58.113Z,3.07
2019-01-02T03:46:27.162Z,3.10
2019-01-02T03:48:56.198Z,3.12
2019-01-02T03:51:25.274Z,3.11
2019-01-02T03:53:54.316Z,3.11
2019-01-02T03:56:23.362Z,3.04
2019-01-02T03:58:52.454Z,3.08
2019-01-02T04:01:21.507Z,3.11
2019-01-02T04:03:50.550Z,3.11
2019-01-02T04:06:19.637Z,3.10
2019-01-02T04:08:48.669Z,3.05
2019-01-02T04:11:17.717Z,3.06
2019-01-02T04:13:46.785Z,3.06
2019-01-02T04:16:15.826Z,3.10
2019-01-02T04:18:44.880Z,3.11
2019-01-02T04:21:14.096Z,3.13
2019-01-02T04:23:43.132Z,3.10
2019-01-02T04:26:12.165Z,3.13
2019-01-02T04:28:41.236Z,2.92
2019-01-02T04:31:10.286Z,2.93
2019-01-02T04:33:39.333Z,2.95
2019-01-02T04:36:08.407Z,3.00
2019-01-02T04:38:37.457Z,2.98
2019-01-02T04:41:06.505Z,3.00
2019-01-02T04:43:35.622Z,3.07
2019-01-02T04:46:04.675Z,3.06
2019-01-02T04:48:33.716Z,3.04
2019-01-02T04:51:02.781Z,3.03
2019-01-02T04:53:31.819Z,3.00
2019-01-02T04:56:00.864Z,3.08
2019-01-02T04:58:29.936Z,3.03
2019-01-02T05:00:58.972Z,3.02
2019-01-02T05:03:28.025Z,3.02
2019-01-02T05:05:57.204Z,3.06
2019-01-02T05:08:26.240Z,3.05
2019-01-02T05:10:55.277Z,3.07
2019-01-02T05:13:24.353Z,3.07
2019-01-02T05:15:53.463Z,3.06
2019-01-02T05:18:22.506Z,2.87
2019-01-02T05:20:51.569Z,2.64
2019-01-02T05:23:20.616Z,2.59
2019-01-02T05:25:49.668Z,2.56
2019-01-02T05:28:18.782Z,2.57
2019-01-02T05:30:47.834Z,2.59
2019-01-02T05:33:16.869Z,2.62
2019-01-02T05:35:46.153Z,2.65
2019-01-02T05:38:15.198Z,2.65
2019-01-02T05:40:44.254Z,2.69
2019-01-02T05:43:13.327Z,2.79
2019-01-02T05:45:42.374Z,2.78
2019-01-02T05:48:11.420Z,2.85
2019-01-02T05:50:40.525Z,2.92
2019-01-02T05:53:24.225Z,3.00
2019-01-02T05:55:53.302Z,3.04
2019-01-02T05:58:22.338Z,3.11
2019-01-02T06:00:51.400Z,3.11
2019-01-02T06:03:20.476Z,3.10
2019-01-02T06:05:49.526Z,3.16
2019-01-02T06:08:18.559Z,3.20
2019-01-02T06:10:47.679Z,3.25
2019-01-02T06:13:17.551Z,3.23
2019-01-02T06:15:46.594Z,3.22
2019-01-02T06:18:16.251Z,3.25
2019-01-02T06:20:45.293Z,3.31
2019-01-02T06:23:14.344Z,3.30
2019-01-02T06:25:43.421Z,3.31
2019-01-02T06:28:12.469Z,3.26
2019-01-02T06:30:41.515Z,3.26
2019-01-02T06:33:10.629Z,3.32
2019-01-02T06:35:39.679Z,3.22
2019-01-02T06:38:08.723Z,3.23
2019-01-02T06:40:38.015Z,3.21
2019-01-02T06:43:07.065Z,3.27
2019-01-02T06:45:36.115Z,3.06
2019-01-02T06:48:05.198Z,3.09
2019-01-02T06:50:34.265Z,3.03
2019-01-02T06:53:03.310Z,3.02
2019-01-02T06:55:32.392Z,3.11
2019-01-02T06:58:01.436Z,3.16
2019-01-02T07:00:30.475Z,3.08
2019-01-02T07:02:59.553Z,3.10
2019-01-02T07:05:28.603Z,3.09
2019-01-02T07:07:57.640Z,3.04
2019-01-02T07:10:26.707Z,3.04
2019-01-02T07:12:55.745Z,2.98
2019-01-02T07:15:24.789Z,3.05
2019-01-02T07:17:53.892Z,3.01
2019-01-02T07:20:22.936Z,3.05
2019-01-02T07:22:51.982Z,3.03
2019-01-02T07:25:21.052Z,2.68
2019-01-02T07:28:12.911Z,2.46
2019-01-02T07:30:43.427Z,2.35
2019-01-02T07:38:40.256Z,2.46
2019-01-02T07:43:45.950Z,2.68
2019-01-02T07:46:33.569Z,2.74
2019-01-02T07:49:08.463Z,2.82
2019-01-02T07:51:42.580Z,2.87
2019-01-02T07:57:04.094Z,2.86
2019-01-02T07:59:38.933Z,2.93
2019-01-02T08:02:23.845Z,2.94
2019-01-02T08:07:54.267Z,2.78
2019-01-02T08:10:24.818Z,2.76
2019-01-02T08:12:59.559Z,2.77
2019-01-02T08:15:30.543Z,2.76
2019-01-02T08:18:02.181Z,2.68
2019-01-02T08:20:50.361Z,2.72
2019-01-02T08:23:19.487Z,2.77
2019-01-02T08:26:03.050Z,2.84
2019-01-02T08:28:50.207Z,2.95
2019-01-02T08:31:23.813Z,2.94
2019-01-02T08:34:06.382Z,2.78
2019-01-02T08:36:35.425Z,2.78
2019-01-02T08:39:11.115Z,2.65
2019-01-02T08:41:46.694Z,2.66
2019-01-02T08:44:16.558Z,2.60
2019-01-02T08:46:51.447Z,2.61
2019-01-02T08:49:22.461Z,2.65
2019-01-02T08:51:54.292Z,2.72
2019-01-02T08:54:27.333Z,2.77
2019-01-02T08:56:59.912Z,2.78
2019-01-02T08:59:30.777Z,2.86
2019-01-02T09:02:02.532Z,2.96
2019-01-02T09:04:32.550Z,2.99
2019-01-02T09:07:07.515Z,3.02
2019-01-02T09:09:38.399Z,2.99
2019-01-02T09:12:14.023Z,2.99
2019-01-02T09:14:54.793Z,2.88
2019-01-02T09:17:24.625Z,2.94
2019-01-02T09:19:54.601Z,2.83
2019-01-02T09:22:39.369Z,2.94
2019-01-02T09:25:12.949Z,2.91
2019-01-02T09:27:46.856Z,2.87
2019-01-02T09:30:18.478Z,2.87
2019-01-02T09:32:53.471Z,2.85
2019-01-02T09:35:32.216Z,2.90
2019-01-02T09:38:14.892Z,2.92
2019-01-02T09:40:44.833Z,3.06
2019-01-02T09:43:15.715Z,3.02
2019-01-02T09:46:00.370Z,3.04
2019-01-02T09:48:42.869Z,3.01
2019-01-02T09:51:21.584Z,3.04
2019-01-02T09:53:55.661Z,2.98
2019-01-02T09:56:30.687Z,2.93
2019-01-02T09:59:15.661Z,2.95
2019-01-02T10:01:47.207Z,2.92
2019-01-02T10:04:16.277Z,2.87
2019-01-02T10:06:45.333Z,2.85
2019-01-02T10:09:17.855Z,2.78
2019-01-02T10:11:51.429Z,2.76
2019-01-02T10:14:25.344Z,2.62
2019-01-02T10:17:00.851Z,2.56
2019-01-02T10:19:33.900Z,2.56
2019-01-02T10:22:03.745Z,2.31
2019-01-02T10:24:34.535Z,2.02
2019-01-02T10:27:04.499Z,2.06
2019-01-02T10:29:44.603Z,2.16
2019-01-02T10:32:19.324Z,2.01
2019-01-02T10:34:51.089Z,2.19
2019-01-02T10:37:23.678Z,2.12
2019-01-02T10:39:59.627Z,1.99
2019-01-02T10:42:32.179Z,2.12
2019-01-02T10:45:14.509Z,2.18
2019-01-02T10:47:45.424Z,2.31
2019-01-02T10:50:16.346Z,2.40
2019-01-02T10:52:50.934Z,2.41
2019-01-02T10:55:26.607Z,2.37
2019-01-02T10:57:56.453Z,2.50
2019-01-02T11:00:30.255Z,2.45
2019-01-02T11:03:07.834Z,2.57
2019-01-02T11:05:40.366Z,2.55
2019-01-02T11:08:13.521Z,2.59
2019-01-02T11:10:42.153Z,2.55
2019-01-02T11:13:14.027Z,2.56
2019-01-02T11:15:43.141Z,2.65
2019-01-02T11:18:13.119Z,2.38
2019-01-02T11:20:53.960Z,2.13
2019-01-02T11:23:39.813Z,2.08
2019-01-02T11:26:09.819Z,2.11
2019-01-02T11:28:44.735Z,2.09
2019-01-02T11:31:20.522Z,2.27
2019-01-02T11:33:50.385Z,2.33
2019-01-02T11:36:21.301Z,2.33
2019-01-02T11:38:56.991Z,2.44
2019-01-02T11:41:31.883Z,2.42
2019-01-02T11:44:03.470Z,2.52
2019-01-02T11:46:32.853Z,2.61
2019-01-02T11:49:01.900Z,2.57
2019-01-02T11:51:30.963Z,2.61
2019-01-02T11:54:00.349Z,2.65
2019-01-02T11:56:29.395Z,2.61
2019-01-02T11:58:58.431Z,2.69
2019-01-02T12:01:27.510Z,2.74
2019-01-02T12:03:56.556Z,2.75
2019-01-02T12:06:25.580Z,2.77
2019-01-02T12:08:54.692Z,2.71
2019-01-02T12:11:23.736Z,2.56
2019-01-02T12:13:52.782Z,2.48
2019-01-02T12:16:21.926Z,2.59
2019-01-02T12:18:50.980Z,2.37
2019-01-02T12:21:20.020Z,2.36
2019-01-02T12:23:49.099Z,2.50
2019-01-02T12:26:18.147Z,2.42
2019-01-02T12:28:47.198Z,2.52
2019-01-02T12:31:16.395Z,2.57
2019-01-02T12:33:45.439Z,2.63
2019-01-02T12:36:14.488Z,2.57
2019-01-02T12:38:43.578Z,2.54
2019-01-02T12:41:12.635Z,2.62
2019-01-02T12:43:42.660Z,2.62
2019-01-02T12:46:10.766Z,2.65
2019-01-02T12:48:39.828Z,2.60
2019-01-02T12:51:08.875Z,2.39
2019-01-02T12:53:43.534Z,2.34
2019-01-02T12:56:07.057Z,2.46
2019-01-02T12:58:36.113Z,2.49
2019-01-02T13:01:05.182Z,2.57
2019-01-02T13:03:45.941Z,2.57
2019-01-02T13:06:26.742Z,2.64
2019-01-02T13:09:12.608Z,2.73
2019-01-02T13:11:45.362Z,2.76
2019-01-02T13:14:17.122Z,2.82
2019-01-02T13:16:54.995Z,2.76
2019-01-02T13:19:26.747Z,2.81
2019-01-02T13:22:02.558Z,2.81
2019-01-02T13:24:32.429Z,2.82
2019-01-02T13:27:01.481Z,2.78
2019-01-02T13:29:30.783Z,2.83
2019-01-02T13:32:06.606Z,2.77
2019-01-02T13:34:39.202Z,2.90
2019-01-02T13:37:10.760Z,2.92
2019-01-02T13:39:51.588Z,2.93
2019-01-02T13:42:21.440Z,2.94
2019-01-02T13:44:50.478Z,2.77
2019-01-02T13:47:28.914Z,2.73
2019-01-02T13:49:58.747Z,2.70
2019-01-02T13:52:27.788Z,2.73
2019-01-02T13:54:56.881Z,2.68
2019-01-02T13:57:25.908Z,2.66
2019-01-02T13:59:55.030Z,2.74
2019-01-02T14:02:24.108Z,2.83
2019-01-02T14:04:53.148Z,2.83
2019-01-02T14:07:22.197Z,2.80
2019-01-02T14:09:51.303Z,2.86
2019-01-02T14:12:20.341Z,2.75
2019-01-02T14:14:49.391Z,2.84
2019-01-02T14:17:18.488Z,2.75
2019-01-02T14:19:47.523Z,2.85
2019-01-02T14:22:16.571Z,2.80
2019-01-02T14:24:45.648Z,2.87
2019-01-02T14:27:14.695Z,2.79
2019-01-02T14:29:43.754Z,2.77
2019-01-02T14:32:12.863Z,2.87
2019-01-02T14:34:41.916Z,2.89
2019-01-02T14:37:10.960Z,2.83
2019-01-02T14:39:40.033Z,2.90
2019-01-02T14:42:09.056Z,2.94
2019-01-02T14:44:38.102Z,2.80
2019-01-02T14:47:07.487Z,2.88
2019-01-02T14:49:36.543Z,2.90
2019-01-02T14:52:05.583Z,2.85
2019-01-02T14:54:34.685Z,2.83
2019-01-02T14:57:03.734Z,2.81
2019-01-02T14:59:32.787Z,2.90
2019-01-02T15:02:01.871Z,2.92
2019-01-02T15:04:30.921Z,2.76
2019-01-02T15:06:59.986Z,2.52
2019-01-02T15:09:29.075Z,2.32
2019-01-02T15:11:58.152Z,2.28
2019-01-02T15:14:27.207Z,2.25
2019-01-02T15:16:56.317Z,2.33
2019-01-02T15:19:26.129Z,2.26
2019-01-02T15:21:55.409Z,2.18
2019-01-02T15:24:24.245Z,2.27
2019-01-02T15:26:53.300Z,2.25
2019-01-02T15:29:22.354Z,2.30
2019-01-02T15:31:51.424Z,2.18
2019-01-02T15:34:20.475Z,2.25
2019-01-02T15:36:49.528Z,2.34
2019-01-02T15:39:18.607Z,2.34
2019-01-02T15:41:47.668Z,2.36
2019-01-02T15:44:16.730Z,2.14
2019-01-02T15:46:45.810Z,2.16
2019-01-02T15:49:14.864Z,2.11
2019-01-02T15:51:43.907Z,2.09
2019-01-02T15:54:13.003Z,2.06
2019-01-02T15:56:42.048Z,1.99
2019-01-02T15:59:11.099Z,2.04
2019-01-02T16:01:40.193Z,2.09
2019-01-02T16:04:09.233Z,2.14
2019-01-02T16:06:38.277Z,2.09
2019-01-02T16:09:07.363Z,2.22
2019-01-02T16:11:36.402Z,2.28
2019-01-02T16:14:16.807Z,2.30
2019-01-02T16:16:40.684Z,2.22
2019-01-02T16:19:09.730Z,2.28
2019-01-02T16:21:38.854Z,2.30
2019-01-02T16:24:07.924Z,2.29
2019-01-02T16:26:36.972Z,2.24
2019-01-02T16:29:06.057Z,2.02
2019-01-02T16:31:35.101Z,2.00
2019-01-02T16:34:04.149Z,1.99
2019-01-02T16:36:33.992Z,2.02
2019-01-02T16:39:02.261Z,1.98
2019-01-02T16:41:31.328Z,1.97
2019-01-02T16:47:05.320Z,1.91
2019-01-02T16:49:34.406Z,2.00
2019-01-02T16:52:03.457Z,2.03
2019-01-02T16:54:32.507Z,2.11
2019-01-02T16:57:01.583Z,2.06
2019-01-02T16:59:30.638Z,2.11
2019-01-02T17:01:59.701Z,2.19
2019-01-02T17:04:28.799Z,2.10
2019-01-02T17:06:57.845Z,2.12
2019-01-02T17:09:26.895Z,2.01
2019-01-02T17:11:55.982Z,1.99
2019-01-02T17:14:25.041Z,1.89
2019-01-02T17:16:54.106Z,1.86
2019-01-02T17:19:23.190Z,1.80
2019-01-02T17:21:52.242Z,1.77
2019-01-02T17:24:21.305Z,1.76
2019-01-02T17:26:50.734Z,1.67
2019-01-02T17:29:19.783Z,1.69
2019-01-02T17:31:48.841Z,1.71
2019-01-02T17:34:17.904Z,1.61
2019-01-02T17:36:46.944Z,1.59
2019-01-02T17:39:15.983Z,1.70
2019-01-02T17:41:45.048Z,1.75
2019-01-02T17:44:14.088Z,1.80
2019-01-02T17:46:43.148Z,1.86
2019-01-02T17:49:12.261Z,1.86
2019-01-02T17:51:41.307Z,1.92
2019-01-02T17:54:10.359Z,1.94
2019-01-02T17:56:39.423Z,1.82
2019-01-02T17:59:08.487Z,1.91
2019-01-02T18:01:37.543Z,1.87
2019-01-02T18:04:06.623Z,1.81
2019-01-02T18:06:35.671Z,1.81
2019-01-02T18:09:04.713Z,1.80
2019-01-02T18:11:33.904Z,1.82
2019-01-02T18:14:02.948Z,1.86
2019-01-02T18:16:32.009Z,1.87
2019-01-02T18:19:01.094Z,2.01
2019-01-02T18:21:30.140Z,2.03
2019-01-02T18:23:59.180Z,2.11
2019-01-02T18:26:28.254Z,2.25
2019-01-02T18:28:57.298Z,2.20
2019-01-02T18:31:26.339Z,2.27
2019-01-02T18:33:55.431Z,2.32
2019-01-02T18:36:24.516Z,2.38
2019-01-02T18:38:53.525Z,2.10
2019-01-02T18:41:22.594Z,1.67
2019-01-02T18:43:51.635Z,1.35
2019-01-02T18:46:20.685Z,1.23
2019-01-02T18:48:49.750Z,1.29
2019-01-02T18:51:18.797Z,1.38
2019-01-02T18:53:47.846Z,1.42
2019-01-02T18:56:16.940Z,1.39
2019-01-02T18:58:46.004Z,1.43
2019-01-02T19:01:15.064Z,1.56
2019-01-02T19:03:44.144Z,1.64
2019-01-02T19:06:13.202Z,1.64
2019-01-02T19:08:42.253Z,1.75
2019-01-02T19:11:11.325Z,1.92
2019-01-02T19:13:40.365Z,2.09
2019-01-02T19:16:09.407Z,2.20
2019-01-02T19:18:38.597Z,2.28
2019-01-02T19:21:07.668Z,2.38
2019-01-02T19:23:36.718Z,2.28
2019-01-02T19:26:05.790Z,2.37
2019-01-02T19:28:34.850Z,2.50
2019-01-02T19:31:03.898Z,2.47
2019-01-02T19:33:32.970Z,2.47
2019-01-02T19:36:02.018Z,2.41
2019-01-02T19:38:31.063Z,2.34
2019-01-02T19:41:00.181Z,2.50
2019-01-02T19:43:34.940Z,2.56
2019-01-02T19:46:04.012Z,2.54
2019-01-02T19:48:33.059Z,2.53
2019-01-02T19:51:02.092Z,2.58
2019-01-02T19:53:31.159Z,2.58
2019-01-02T19:56:00.213Z,2.57
2019-01-02T19:58:29.262Z,2.60
2019-01-02T20:00:58.365Z,2.55
2019-01-02T20:03:27.415Z,2.58
2019-01-02T20:05:56.464Z,2.64
2019-01-02T20:08:25.536Z,2.54
2019-01-02T20:10:54.592Z,2.63
2019-01-02T20:13:23.633Z,2.59
2019-01-02T20:15:52.698Z,2.56
2019-01-02T20:18:21.760Z,2.56
2019-01-02T20:20:50.824Z,2.58
2019-01-02T20:23:19.953Z,2.52
2019-01-02T20:25:48.997Z,2.48
2019-01-02T20:28:18.039Z,2.50
2019-01-02T20:30:47.107Z,2.56
2019-01-02T20:33:16.145Z,2.61
2019-01-02T20:35:45.193Z,2.72
2019-01-02T20:38:14.258Z,2.72
2019-01-02T20:40:43.313Z,2.62
2019-01-02T20:43:12.356Z,2.72
2019-01-02T20:45:41.534Z,2.67
2019-01-02T20:48:10.572Z,2.61
2019-01-02T20:50:39.621Z,2.74
2019-01-02T20:53:08.713Z,2.71
2019-01-02T20:55:37.766Z,2.69
2019-01-02T20:58:06.823Z,2.67
2019-01-02T21:00:35.901Z,2.69
2019-01-02T21:03:04.949Z,2.74
2019-01-02T21:05:33.979Z,2.73
2019-01-02T21:08:03.095Z,2.63
2019-01-02T21:10:32.138Z,2.64
2019-01-02T21:13:01.186Z,2.64
2019-01-02T21:15:30.261Z,2.69
2019-01-02T21:17:59.334Z,2.69
2019-01-02T21:20:28.398Z,2.60
2019-01-02T21:22:58.430Z,2.65
2019-01-02T21:25:27.481Z,2.79
2019-01-02T21:27:56.513Z,2.75
2019-01-02T21:30:25.602Z,2.68
2019-01-02T21:32:54.647Z,2.62
2019-01-02T21:35:23.701Z,2.56
2019-01-02T21:37:52.771Z,2.51
2019-01-02T21:40:21.810Z,2.45
2019-01-02T21:42:51.874Z,2.56
2019-01-02T21:45:20.936Z,2.53
2019-01-02T21:47:49.970Z,2.44
2019-01-02T21:50:19.016Z,2.51
2019-01-02T21:52:48.104Z,2.53
2019-01-02T21:55:17.140Z,2.47
2019-01-02T21:57:46.191Z,2.53
2019-01-02T22:00:15.258Z,2.55
2019-01-02T22:02:44.297Z,2.54
2019-01-02T22:05:13.333Z,2.54
2019-01-02T22:07:42.408Z,2.49
2019-01-02T22:10:11.455Z,2.48
2019-01-02T22:12:40.494Z,2.53
2019-01-02T22:15:09.926Z,2.42
2019-01-02T22:17:40.363Z,2.42
2019-01-02T22:20:08.019Z,2.01
2019-01-02T22:22:37.092Z,2.10
2019-01-02T22:25:06.158Z,2.09
2019-01-02T22:27:35.191Z,2.07
2019-01-02T22:30:04.263Z,2.04
2019-01-02T22:32:33.308Z,1.89
2019-01-02T22:35:02.338Z,1.85
2019-01-02T22:37:31.444Z,1.88
2019-01-02T22:40:00.504Z,1.91
2019-01-02T22:42:29.550Z,1.90
2019-01-02T22:44:58.621Z,1.98
2019-01-02T22:47:27.661Z,2.05
2019-01-02T22:49:56.703Z,2.06
2019-01-02T22:52:25.757Z,2.01
2019-01-02T22:54:54.807Z,2.02
2019-01-02T22:57:23.843Z,2.10
2019-01-02T22:59:52.942Z,2.08
2019-01-02T23:02:21.985Z,2.13
2019-01-02T23:04:51.015Z,2.15
2019-01-02T23:07:24.015Z,2.11
2019-01-02T23:09:55.020Z,1.84
2019-01-02T23:12:24.062Z,1.65
2019-01-02T23:14:58.664Z,1.75
2019-01-02T23:17:31.498Z,1.70
2019-01-02T23:20:06.166Z,1.77
2019-01-02T23:22:37.155Z,1.42
2019-01-02T23:25:07.038Z,1.41
2019-01-02T23:27:41.607Z,1.36
2019-01-02T23:33:07.756Z,1.45
2019-01-02T23:35:36.782Z,1.46
2019-01-02T23:38:07.668Z,1.42
2019-01-02T23:40:42.337Z,1.49
2019-01-02T23:43:13.180Z,1.47
2019-01-02T23:45:43.154Z,1.55
2019-01-02T23:48:17.139Z,1.64
2019-01-02T23:50:50.091Z,1.72
2019-01-02T23:53:19.147Z,1.80
2019-01-02T23:55:53.838Z,1.96
2019-01-02T23:58:26.108Z,2.10
